KSQI/SQI METAR and TAF weather

Enter ICAO airport designator
Station Type Date Time Source
KSQI METAR 2020/01/24 09:27 UTC NOAA

KSQI 240927Z 06008KT 3SM -SN BR OVC004 00/00 A2987 RMK AO2 P0001 FZRANO


Station Type Date Time Source
KSQI Decoded METAR 2020/01/24 09:27 UTC NOAA

Sterling Rockfalls, IL, United States (KSQI) 41-45N 089-40W
Jan 24, 2020 - 04:27 AM EST / 2020.01.24 0927 UTC
Wind: from the ENE (060 degrees) at 9 MPH (8 KT):0
Visibility: 3 mile(s):0
Sky conditions: overcast
Weather: light snow; mist
Precipitation last hour: 0.01 inches
Temperature: 32 F (0 C)
Windchill: 24 F (-4 C):1
Dew Point: 32 F (0 C)
Relative Humidity: 100%
Pressure (altimeter): 29.87 in. Hg (1011 hPa)
ob: KSQI 240927Z 06008KT 3SM -SN BR OVC004 00/00 A2987 RMK AO2 P0001 FZRANO
cycle: 9

Station Type Date Time Source
KSQI TAF UTC NOAA

Error!

Example: see airport list